Terminal Aerodrome Forecast
Issued by NWS Billings, MT

Home | Current Version | Previous Version | Graphics & Text | Print | Product List | Glossary On
Versions: 1 2 3 4 5 6 7 8 9 10 11 12 13 14 15 16 17 18 19 20 21 22 23 24 25 26 27 28 29 30 31 32 33
000
FTUS45 KBYZ 301722
TAFMLS
TAF
KMLS 301722Z 3018/3118 31014KT P6SM SCT100 BKN200
     FM310200 31022G32KT P6SM VCSH BKN080
     FM310800 31020G30KT P6SM SCT100
     FM311200 30012KT P6SM FEW100=

USA.gov is the U.S. government's official web portal to all federal, state and local government web resources and services.